Search for airport 
image banner adimage banner adimage banner ad
image banner ad

25CA - Loma Madera Ranch

Located in Santa Ysabel, United States

ICAO - 25CA, IATA -

Data provided by Airmate  

General information

Coordinates: N33°10'45" W116°47'33"
Elevation is 3375 feet MSL.
Magnetic variation is 13° East
View others Airports in California

Operational data

Special qualification required
Current time UTC:
Current local time:
Weather at : KRNM - Ramona ( 19 km )
METAR: KRNM 240853Z AUTO 27003KT 8SM OVC003 15/14 A3001 RMK AO2 SLP150 T01500144 58002
View NOTAMs / SUP AIP / TFR affecting this airport [VIEW]
Communications frequencies: [VIEW]

Runways:

RWY identifierQFULength (ft)Width (ft)SurfaceLDA (ft)
06230040GRASS
24230040GRASS

Airport contact information

Address: Santa Ysabel United States

Satellite view of 25CA